sensor_id;sensor_type;location;lat;lon;timestamp;pressure;altitude;pressure_sealevel;temperature;humidity
72921;BME280;61064;51.654;5.476;2023-04-05T00:00:38;102491.53;;;4.39;61.09
72921;BME280;61064;51.654;5.476;2023-04-05T00:03:04;102481.19;;;4.27;61.02
72921;BME280;61064;51.654;5.476;2023-04-05T00:05:30;102512.75;;;4.42;61.03
72921;BME280;61064;51.654;5.476;2023-04-05T00:07:56;102506.16;;;4.34;61.17
72921;BME280;61064;51.654;5.476;2023-04-05T00:10:21;102488.63;;;4.19;61.47
72921;BME280;61064;51.654;5.476;2023-04-05T00:12:47;102523.03;;;4.37;61.40
72921;BME280;61064;51.654;5.476;2023-04-05T00:15:12;102504.78;;;4.26;61.44
72921;BME280;61064;51.654;5.476;2023-04-05T00:17:37;102527.13;;;4.32;61.74
72921;BME280;61064;51.654;5.476;2023-04-05T00:20:03;102503.50;;;4.19;61.68
72921;BME280;61064;51.654;5.476;2023-04-05T00:22:32;102544.03;;;4.36;61.53
72921;BME280;61064;51.654;5.476;2023-04-05T00:25:00;102469.84;;;3.99;61.67
72921;BME280;61064;51.654;5.476;2023-04-05T00:27:26;102440.81;;;3.83;61.71
72921;BME280;61064;51.654;5.476;2023-04-05T00:29:51;102524.25;;;4.28;61.77
72921;BME280;61064;51.654;5.476;2023-04-05T00:32:16;102431.47;;;3.73;62.09
72921;BME280;61064;51.654;5.476;2023-04-05T00:34:42;102466.94;;;3.94;61.91
72921;BME280;61064;51.654;5.476;2023-04-05T00:37:07;102455.94;;;3.87;62.26
72921;BME280;61064;51.654;5.476;2023-04-05T00:39:34;102527.88;;;4.15;62.18
72921;BME280;61064;51.654;5.476;2023-04-05T00:42:02;102520.50;;;4.09;62.17
72921;BME280;61064;51.654;5.476;2023-04-05T00:44:28;102534.78;;;3.98;62.18
72921;BME280;61064;51.654;5.476;2023-04-05T00:46:59;102528.06;;;3.89;62.45
72921;BME280;61064;51.654;5.476;2023-04-05T00:49:24;102534.66;;;3.82;62.81
72921;BME280;61064;51.654;5.476;2023-04-05T00:51:49;102413.53;;;3.23;62.88
72921;BME280;61064;51.654;5.476;2023-04-05T00:54:16;102500.44;;;3.67;62.96
72921;BME280;61064;51.654;5.476;2023-04-05T00:56:42;102505.78;;;3.69;62.94
72921;BME280;61064;51.654;5.476;2023-04-05T00:59:08;102442.66;;;3.26;63.24
72921;BME280;61064;51.654;5.476;2023-04-05T01:01:37;102523.91;;;3.64;63.28
72921;BME280;61064;51.654;5.476;2023-04-05T01:04:05;102527.19;;;3.60;63.48
72921;BME280;61064;51.654;5.476;2023-04-05T01:06:42;102532.34;;;3.59;63.40
72921;BME280;61064;51.654;5.476;2023-04-05T01:12:02;102518.91;;;3.54;63.44
72921;BME280;61064;51.654;5.476;2023-04-05T01:14:28;102459.16;;;3.24;63.56
72921;BME280;61064;51.654;5.476;2023-04-05T01:16:54;102493.78;;;3.45;63.73
72921;BME280;61064;51.654;5.476;2023-04-05T01:19:26;102482.78;;;3.37;63.73
72921;BME280;61064;51.654;5.476;2023-04-05T01:24:51;102481.84;;;3.37;63.89
72921;BME280;61064;51.654;5.476;2023-04-05T01:27:37;102494.59;;;3.44;63.70
72921;BME280;61064;51.654;5.476;2023-04-05T01:33:34;102502.84;;;3.50;63.86
72921;BME280;61064;51.654;5.476;2023-04-05T01:36:14;102461.88;;;3.25;63.70
72921;BME280;61064;51.654;5.476;2023-04-05T01:38:38;102471.97;;;3.32;63.50
72921;BME280;61064;51.654;5.476;2023-04-05T01:41:04;102493.28;;;3.37;63.94
72921;BME280;61064;51.654;5.476;2023-04-05T01:43:29;102499.91;;;3.30;63.99
72921;BME280;61064;51.654;5.476;2023-04-05T01:45:54;102459.00;;;3.08;63.86
72921;BME280;61064;51.654;5.476;2023-04-05T01:48:20;102452.47;;;3.01;64.03
72921;BME280;61064;51.654;5.476;2023-04-05T01:50:45;102449.66;;;2.98;63.89
72921;BME280;61064;51.654;5.476;2023-04-05T01:53:10;102457.44;;;2.97;63.98
72921;BME280;61064;51.654;5.476;2023-04-05T01:55:36;102429.28;;;2.81;64.22
72921;BME280;61064;51.654;5.476;2023-04-05T01:58:01;102492.78;;;3.15;64.48
72921;BME280;61064;51.654;5.476;2023-04-05T02:00:26;102481.44;;;3.16;64.21
72921;BME280;61064;51.654;5.476;2023-04-05T02:02:52;102446.63;;;2.92;64.45
72921;BME280;61064;51.654;5.476;2023-04-05T02:05:17;102459.09;;;2.95;64.33
72921;BME280;61064;51.654;5.476;2023-04-05T02:07:43;102472.28;;;2.96;64.56
72921;BME280;61064;51.654;5.476;2023-04-05T02:10:08;102481.47;;;3.03;64.40
72921;BME280;61064;51.654;5.476;2023-04-05T02:12:33;102478.56;;;2.98;64.85
72921;BME280;61064;51.654;5.476;2023-04-05T02:14:59;102490.63;;;2.95;64.75
72921;BME280;61064;51.654;5.476;2023-04-05T02:17:25;102414.41;;;2.54;64.90
72921;BME280;61064;51.654;5.476;2023-04-05T02:20:07;102465.56;;;2.86;64.97
72921;BME280;61064;51.654;5.476;2023-04-05T02:22:34;102480.41;;;2.86;65.11
72921;BME280;61064;51.654;5.476;2023-04-05T02:25:01;102451.34;;;2.70;64.98
72921;BME280;61064;51.654;5.476;2023-04-05T02:27:28;102478.41;;;2.82;65.35
72921;BME280;61064;51.654;5.476;2023-04-05T02:29:53;102445.53;;;2.61;65.44
72921;BME280;61064;51.654;5.476;2023-04-05T02:32:19;102412.31;;;2.48;65.24
72921;BME280;61064;51.654;5.476;2023-04-05T02:34:45;102425.81;;;2.54;65.27
72921;BME280;61064;51.654;5.476;2023-04-05T02:37:10;102478.03;;;2.76;65.20
72921;BME280;61064;51.654;5.476;2023-04-05T02:39:36;102471.75;;;2.74;65.60
72921;BME280;61064;51.654;5.476;2023-04-05T02:42:01;102404.66;;;2.38;65.41
72921;BME280;61064;51.654;5.476;2023-04-05T02:44:28;102471.47;;;2.69;65.56
72921;BME280;61064;51.654;5.476;2023-04-05T02:46:53;102433.72;;;2.41;65.59
72921;BME280;61064;51.654;5.476;2023-04-05T02:49:18;102437.16;;;2.40;65.84
72921;BME280;61064;51.654;5.476;2023-04-05T02:51:44;102472.09;;;2.52;65.84
72921;BME280;61064;51.654;5.476;2023-04-05T02:54:09;102437.06;;;2.38;65.66
72921;BME280;61064;51.654;5.476;2023-04-05T02:56:35;102417.69;;;2.23;65.99
72921;BME280;61064;51.654;5.476;2023-04-05T02:59:00;102477.06;;;2.47;66.02
72921;BME280;61064;51.654;5.476;2023-04-05T03:01:26;102410.31;;;2.18;66.18
72921;BME280;61064;51.654;5.476;2023-04-05T03:03:52;102430.22;;;2.27;66.11
72921;BME280;61064;51.654;5.476;2023-04-05T03:06:17;102422.84;;;2.22;66.11
72921;BME280;61064;51.654;5.476;2023-04-05T03:08:45;102407.50;;;2.15;66.30
72921;BME280;61064;51.654;5.476;2023-04-05T03:11:13;102397.31;;;2.06;66.17
72921;BME280;61064;51.654;5.476;2023-04-05T03:13:38;102330.31;;;1.58;66.40
72921;BME280;61064;51.654;5.476;2023-04-05T03:16:05;102382.38;;;1.92;66.44
72921;BME280;61064;51.654;5.476;2023-04-05T03:18:30;102429.59;;;2.18;66.37
72921;BME280;61064;51.654;5.476;2023-04-05T03:20:56;102398.41;;;1.96;66.36
72921;BME280;61064;51.654;5.476;2023-04-05T03:23:31;102414.78;;;2.05;66.83
72921;BME280;61064;51.654;5.476;2023-04-05T03:26:01;102436.28;;;2.13;66.37
72921;BME280;61064;51.654;5.476;2023-04-05T03:28:27;102426.09;;;2.04;66.90
72921;BME280;61064;51.654;5.476;2023-04-05T03:30:53;102442.13;;;2.09;66.89
72921;BME280;61064;51.654;5.476;2023-04-05T03:33:19;102435.06;;;2.08;66.68
72921;BME280;61064;51.654;5.476;2023-04-05T03:35:45;102406.50;;;1.86;66.97
72921;BME280;61064;51.654;5.476;2023-04-05T03:38:11;102429.81;;;2.08;66.83
72921;BME280;61064;51.654;5.476;2023-04-05T03:40:37;102401.53;;;1.91;67.09
72921;BME280;61064;51.654;5.476;2023-04-05T03:43:02;102433.34;;;2.08;66.84
72921;BME280;61064;51.654;5.476;2023-04-05T03:45:28;102427.69;;;2.02;67.05
72921;BME280;61064;51.654;5.476;2023-04-05T03:47:58;102343.81;;;1.51;66.98
72921;BME280;61064;51.654;5.476;2023-04-05T03:50:24;102399.13;;;1.81;67.02
72921;BME280;61064;51.654;5.476;2023-04-05T03:52:50;102407.72;;;1.91;66.97
72921;BME280;61064;51.654;5.476;2023-04-05T03:55:16;102409.22;;;1.88;67.08
72921;BME280;61064;51.654;5.476;2023-04-05T03:57:41;102428.00;;;1.94;67.16
72921;BME280;61064;51.654;5.476;2023-04-05T04:00:08;102373.28;;;1.60;67.23
72921;BME280;61064;51.654;5.476;2023-04-05T04:02:42;102405.50;;;1.71;67.66
72921;BME280;61064;51.654;5.476;2023-04-05T04:05:09;102365.28;;;1.46;67.37
72921;BME280;61064;51.654;5.476;2023-04-05T04:07:34;102428.09;;;1.82;67.93
72921;BME280;61064;51.654;5.476;2023-04-05T04:10:00;102395.50;;;1.65;67.57
72921;BME280;61064;51.654;5.476;2023-04-05T04:12:25;102386.19;;;1.57;67.35
72921;BME280;61064;51.654;5.476;2023-04-05T04:14:51;102393.25;;;1.58;67.49
72921;BME280;61064;51.654;5.476;2023-04-05T04:17:37;102430.31;;;1.76;67.81
72921;BME280;61064;51.654;5.476;2023-04-05T04:20:04;102423.97;;;1.73;67.83
72921;BME280;61064;51.654;5.476;2023-04-05T04:22:37;102394.66;;;1.53;67.62
72921;BME280;61064;51.654;5.476;2023-04-05T04:25:06;102338.00;;;1.17;67.66
72921;BME280;61064;51.654;5.476;2023-04-05T04:27:35;102425.16;;;1.64;67.77
72921;BME280;61064;51.654;5.476;2023-04-05T04:30:01;102358.84;;;1.28;67.80
72921;BME280;61064;51.654;5.476;2023-04-05T04:32:29;102423.56;;;1.66;68.06
72921;BME280;61064;51.654;5.476;2023-04-05T04:35:14;102420.94;;;1.66;68.04
72921;BME280;61064;51.654;5.476;2023-04-05T04:37:45;102415.56;;;1.65;67.97
72921;BME280;61064;51.654;5.476;2023-04-05T04:40:13;102367.69;;;1.30;67.93
72921;BME280;61064;51.654;5.476;2023-04-05T04:42:43;102360.13;;;1.21;67.93
72921;BME280;61064;51.654;5.476;2023-04-05T04:45:12;102405.22;;;1.42;68.03
72921;BME280;61064;51.654;5.476;2023-04-05T04:47:40;102380.91;;;1.31;67.95
72921;BME280;61064;51.654;5.476;2023-04-05T04:50:06;102398.47;;;1.45;68.03
72921;BME280;61064;51.654;5.476;2023-04-05T04:52:32;102428.06;;;1.56;68.25
72921;BME280;61064;51.654;5.476;2023-04-05T04:54:57;102378.66;;;1.24;67.85
72921;BME280;61064;51.654;5.476;2023-04-05T04:57:23;102336.19;;;1.03;68.09
72921;BME280;61064;51.654;5.476;2023-04-05T04:59:49;102399.47;;;1.34;68.19
72921;BME280;61064;51.654;5.476;2023-04-05T05:02:15;102405.84;;;1.38;68.32
72921;BME280;61064;51.654;5.476;2023-04-05T05:04:40;102352.22;;;1.08;68.22
72921;BME280;61064;51.654;5.476;2023-04-05T05:07:07;102404.69;;;1.34;68.45
72921;BME280;61064;51.654;5.476;2023-04-05T05:09:34;102402.06;;;1.34;68.36
72921;BME280;61064;51.654;5.476;2023-04-05T05:12:00;102382.00;;;1.21;68.47
72921;BME280;61064;51.654;5.476;2023-04-05T05:14:25;102346.56;;;1.02;68.53
72921;BME280;61064;51.654;5.476;2023-04-05T05:16:51;102376.47;;;1.17;68.35
72921;BME280;61064;51.654;5.476;2023-04-05T05:19:18;102384.09;;;1.14;68.37
72921;BME280;61064;51.654;5.476;2023-04-05T05:21:44;102422.25;;;1.35;68.75
72921;BME280;61064;51.654;5.476;2023-04-05T05:24:11;102418.94;;;1.38;68.83
72921;BME280;61064;51.654;5.476;2023-04-05T05:26:38;102417.13;;;1.37;68.65
72921;BME280;61064;51.654;5.476;2023-04-05T05:29:03;102374.31;;;1.11;68.84
72921;BME280;61064;51.654;5.476;2023-04-05T05:31:29;102401.03;;;1.19;68.70
72921;BME280;61064;51.654;5.476;2023-04-05T05:33:56;102376.94;;;1.11;68.87
72921;BME280;61064;51.654;5.476;2023-04-05T05:36:22;102404.19;;;1.27;68.80
72921;BME280;61064;51.654;5.476;2023-04-05T05:38:47;102335.72;;;0.84;68.78
72921;BME280;61064;51.654;5.476;2023-04-05T05:41:13;102365.69;;;1.01;69.01
72921;BME280;61064;51.654;5.476;2023-04-05T05:43:39;102419.00;;;1.26;69.25
72921;BME280;61064;51.654;5.476;2023-04-05T05:46:04;102382.19;;;1.11;69.32
72921;BME280;61064;51.654;5.476;2023-04-05T05:48:30;102368.53;;;1.04;68.98
72921;BME280;61064;51.654;5.476;2023-04-05T05:50:55;102413.97;;;1.29;69.28
72921;BME280;61064;51.654;5.476;2023-04-05T05:53:21;102425.47;;;1.31;69.49
72921;BME280;61064;51.654;5.476;2023-04-05T05:55:46;102429.00;;;1.32;69.34
72921;BME280;61064;51.654;5.476;2023-04-05T05:58:12;102411.75;;;1.22;69.29
72921;BME280;61064;51.654;5.476;2023-04-05T06:00:37;102399.75;;;1.25;69.67
72921;BME280;61064;51.654;5.476;2023-04-05T06:03:03;102381.59;;;1.15;69.56
72921;BME280;61064;51.654;5.476;2023-04-05T06:05:28;102412.06;;;1.40;70.09
72921;BME280;61064;51.654;5.476;2023-04-05T06:07:54;102425.53;;;1.44;69.68
72921;BME280;61064;51.654;5.476;2023-04-05T06:10:19;102385.97;;;1.28;69.58
72921;BME280;61064;51.654;5.476;2023-04-05T06:12:45;102379.09;;;1.30;69.81
72921;BME280;61064;51.654;5.476;2023-04-05T06:15:10;102401.50;;;1.51;69.77
72921;BME280;61064;51.654;5.476;2023-04-05T06:17:35;102299.50;;;1.03;69.68
72921;BME280;61064;51.654;5.476;2023-04-05T06:20:07;102422.06;;;1.83;69.82
72921;BME280;61064;51.654;5.476;2023-04-05T06:22:33;102384.78;;;1.76;69.78
72921;BME280;61064;51.654;5.476;2023-04-05T06:25:00;102372.69;;;1.78;69.48
72921;BME280;61064;51.654;5.476;2023-04-05T06:27:26;102419.09;;;2.18;69.58
72921;BME280;61064;51.654;5.476;2023-04-05T06:29:51;102369.75;;;1.99;69.20
72921;BME280;61064;51.654;5.476;2023-04-05T06:32:16;102378.91;;;2.19;69.38
72921;BME280;61064;51.654;5.476;2023-04-05T06:34:42;102374.28;;;2.28;69.44
72921;BME280;61064;51.654;5.476;2023-04-05T06:37:09;102370.91;;;2.44;69.07
72921;BME280;61064;51.654;5.476;2023-04-05T06:39:35;102385.78;;;2.58;68.82
72921;BME280;61064;51.654;5.476;2023-04-05T06:42:01;102352.44;;;2.57;69.11
72921;BME280;61064;51.654;5.476;2023-04-05T06:44:26;102371.22;;;2.91;68.92
72921;BME280;61064;51.654;5.476;2023-04-05T06:46:51;102360.91;;;2.94;68.67
72921;BME280;61064;51.654;5.476;2023-04-05T06:49:16;102402.22;;;3.39;68.66
72921;BME280;61064;51.654;5.476;2023-04-05T06:51:42;102352.16;;;3.23;68.41
72921;BME280;61064;51.654;5.476;2023-04-05T06:54:07;102319.69;;;3.22;68.39
72921;BME280;61064;51.654;5.476;2023-04-05T06:56:33;102397.56;;;3.79;68.27
72921;BME280;61064;51.654;5.476;2023-04-05T06:58:58;102370.44;;;3.80;68.05
72921;BME280;61064;51.654;5.476;2023-04-05T07:01:23;102422.78;;;4.19;67.80
72921;BME280;61064;51.654;5.476;2023-04-05T07:03:50;102431.38;;;4.32;67.52
72921;BME280;61064;51.654;5.476;2023-04-05T07:06:15;102408.66;;;4.34;67.65
72921;BME280;61064;51.654;5.476;2023-04-05T07:08:41;102405.88;;;4.47;67.22
72921;BME280;61064;51.654;5.476;2023-04-05T07:11:06;102381.44;;;4.49;67.31
72921;BME280;61064;51.654;5.476;2023-04-05T07:13:31;102384.66;;;4.60;66.94
72921;BME280;61064;51.654;5.476;2023-04-05T07:16:01;102343.53;;;4.47;66.65
72921;BME280;61064;51.654;5.476;2023-04-05T07:18:27;102371.25;;;4.72;66.58
72921;BME280;61064;51.654;5.476;2023-04-05T07:20:55;102371.16;;;4.86;66.53
72921;BME280;61064;51.654;5.476;2023-04-05T07:23:24;102428.53;;;5.23;66.63
72921;BME280;61064;51.654;5.476;2023-04-05T07:25:50;102423.81;;;5.33;65.89
72921;BME280;61064;51.654;5.476;2023-04-05T07:28:16;102394.72;;;5.32;66.18
72921;BME280;61064;51.654;5.476;2023-04-05T07:30:41;102364.78;;;5.31;66.10
72921;BME280;61064;51.654;5.476;2023-04-05T07:33:06;102389.41;;;5.48;65.53
72921;BME280;61064;51.654;5.476;2023-04-05T07:35:32;102372.38;;;5.59;65.66
72921;BME280;61064;51.654;5.476;2023-04-05T07:37:57;102384.69;;;5.76;65.29
72921;BME280;61064;51.654;5.476;2023-04-05T07:40:22;102328.25;;;5.57;65.36
72921;BME280;61064;51.654;5.476;2023-04-05T07:42:48;102402.56;;;6.16;65.21
72921;BME280;61064;51.654;5.476;2023-04-05T07:45:13;102404.50;;;6.38;65.07
72921;BME280;61064;51.654;5.476;2023-04-05T07:47:38;102408.13;;;6.57;65.04
72921;BME280;61064;51.654;5.476;2023-04-05T07:50:05;102403.09;;;6.63;64.63
72921;BME280;61064;51.654;5.476;2023-04-05T07:52:32;102365.81;;;6.57;64.07
72921;BME280;61064;51.654;5.476;2023-04-05T07:54:57;102399.94;;;6.90;63.75
72921;BME280;61064;51.654;5.476;2023-04-05T07:57:22;102410.94;;;6.99;63.79
72921;BME280;61064;51.654;5.476;2023-04-05T07:59:48;102384.28;;;6.94;63.31
72921;BME280;61064;51.654;5.476;2023-04-05T08:02:17;102346.03;;;6.88;63.43
72921;BME280;61064;51.654;5.476;2023-04-05T08:04:42;102401.13;;;7.35;63.37
72921;BME280;61064;51.654;5.476;2023-04-05T08:07:07;102399.13;;;7.50;62.93
72921;BME280;61064;51.654;5.476;2023-04-05T08:09:34;102361.16;;;7.49;62.80
72921;BME280;61064;51.654;5.476;2023-04-05T08:12:00;102352.81;;;7.61;62.64
72921;BME280;61064;51.654;5.476;2023-04-05T08:14:27;102377.16;;;7.94;62.05
72921;BME280;61064;51.654;5.476;2023-04-05T08:16:53;102359.63;;;7.98;62.20
72921;BME280;61064;51.654;5.476;2023-04-05T08:19:19;102376.47;;;8.20;62.07
72921;BME280;61064;51.654;5.476;2023-04-05T08:21:44;102375.59;;;8.41;61.90
72921;BME280;61064;51.654;5.476;2023-04-05T08:24:10;102357.47;;;8.53;61.63
72921;BME280;61064;51.654;5.476;2023-04-05T08:26:35;102399.47;;;8.87;60.92
72921;BME280;61064;51.654;5.476;2023-04-05T08:29:01;102341.09;;;8.63;60.83
72921;BME280;61064;51.654;5.476;2023-04-05T08:31:26;102372.41;;;8.95;60.84
72921;BME280;61064;51.654;5.476;2023-04-05T08:33:51;102401.78;;;9.24;60.01
72921;BME280;61064;51.654;5.476;2023-04-05T08:36:16;102366.34;;;9.23;59.78
72921;BME280;61064;51.654;5.476;2023-04-05T08:38:42;102373.00;;;9.36;59.41
72921;BME280;61064;51.654;5.476;2023-04-05T08:43:54;102389.31;;;9.72;58.67
72921;BME280;61064;51.654;5.476;2023-04-05T08:46:22;102351.75;;;9.61;58.99
72921;BME280;61064;51.654;5.476;2023-04-05T08:48:47;102389.03;;;9.89;58.48
72921;BME280;61064;51.654;5.476;2023-04-05T08:51:17;102354.38;;;9.86;58.10
72921;BME280;61064;51.654;5.476;2023-04-05T08:53:43;102387.25;;;10.15;57.82
72921;BME280;61064;51.654;5.476;2023-04-05T08:56:08;102356.78;;;10.06;57.69
72921;BME280;61064;51.654;5.476;2023-04-05T08:58:36;102348.25;;;10.16;57.28
72921;BME280;61064;51.654;5.476;2023-04-05T09:01:03;102335.53;;;10.06;56.87
72921;BME280;61064;51.654;5.476;2023-04-05T09:03:35;102379.31;;;10.42;56.65
72921;BME280;61064;51.654;5.476;2023-04-05T09:06:04;102354.72;;;10.51;56.68
72921;BME280;61064;51.654;5.476;2023-04-05T09:08:32;102338.16;;;10.61;56.14
72921;BME280;61064;51.654;5.476;2023-04-05T09:10:58;102322.19;;;10.61;55.88
72921;BME280;61064;51.654;5.476;2023-04-05T09:13:24;102358.72;;;10.95;55.74
72921;BME280;61064;51.654;5.476;2023-04-05T09:15:49;102304.66;;;10.67;55.64
72921;BME280;61064;51.654;5.476;2023-04-05T09:18:15;102348.31;;;11.04;55.06
72921;BME280;61064;51.654;5.476;2023-04-05T09:20:41;102353.81;;;11.10;54.73
72921;BME280;61064;51.654;5.476;2023-04-05T09:23:06;102329.88;;;11.11;54.38
72921;BME280;61064;51.654;5.476;2023-04-05T09:25:34;102349.28;;;11.39;54.21
72921;BME280;61064;51.654;5.476;2023-04-05T09:28:01;102291.75;;;11.12;53.70
72921;BME280;61064;51.654;5.476;2023-04-05T09:30:29;102321.34;;;11.23;53.48
72921;BME280;61064;51.654;5.476;2023-04-05T09:32:55;102355.69;;;11.45;53.55
72921;BME280;61064;51.654;5.476;2023-04-05T09:35:22;102352.69;;;11.66;53.35
72921;BME280;61064;51.654;5.476;2023-04-05T09:37:52;102345.31;;;11.89;52.73
72921;BME280;61064;51.654;5.476;2023-04-05T09:40:18;102351.91;;;12.04;52.05
72921;BME280;61064;51.654;5.476;2023-04-05T09:42:44;102346.75;;;12.11;51.22
72921;BME280;61064;51.654;5.476;2023-04-05T09:45:16;102294.56;;;11.86;50.88
72921;BME280;61064;51.654;5.476;2023-04-05T09:47:52;102351.47;;;12.22;50.25
72921;BME280;61064;51.654;5.476;2023-04-05T09:50:19;102358.66;;;12.26;50.45
72921;BME280;61064;51.654;5.476;2023-04-05T09:52:45;102348.78;;;12.22;50.52
72921;BME280;61064;51.654;5.476;2023-04-05T09:55:11;102339.03;;;12.23;50.34
72921;BME280;61064;51.654;5.476;2023-04-05T09:57:38;102312.25;;;12.18;49.87
72921;BME280;61064;51.654;5.476;2023-04-05T10:00:04;102339.50;;;12.44;49.47
72921;BME280;61064;51.654;5.476;2023-04-05T10:02:37;102313.81;;;12.47;49.32
72921;BME280;61064;51.654;5.476;2023-04-05T10:05:07;102331.25;;;12.72;48.94
72921;BME280;61064;51.654;5.476;2023-04-05T10:07:37;102268.56;;;12.55;48.73
72921;BME280;61064;51.654;5.476;2023-04-05T10:10:03;102312.91;;;12.89;48.23
72921;BME280;61064;51.654;5.476;2023-04-05T10:12:31;102301.44;;;12.95;47.90
72921;BME280;61064;51.654;5.476;2023-04-05T10:14:57;102326.91;;;13.21;47.42
72921;BME280;61064;51.654;5.476;2023-04-05T10:17:26;102262.22;;;12.93;46.55
72921;BME280;61064;51.654;5.476;2023-04-05T10:20:17;102302.63;;;13.10;46.50
72921;BME280;61064;51.654;5.476;2023-04-05T10:28:25;102244.47;;;12.96;45.57
72921;BME280;61064;51.654;5.476;2023-04-05T10:30:51;102284.44;;;13.35;46.39
72921;BME280;61064;51.654;5.476;2023-04-05T10:33:24;102288.47;;;13.62;45.77
72921;BME280;61064;51.654;5.476;2023-04-05T10:41:19;102253.16;;;13.82;44.55
72921;BME280;61064;51.654;5.476;2023-04-05T10:43:47;102281.16;;;14.06;45.14
72921;BME280;61064;51.654;5.476;2023-04-05T10:46:22;102247.16;;;13.98;44.35
72921;BME280;61064;51.654;5.476;2023-04-05T10:51:59;102288.69;;;14.32;43.95
72921;BME280;61064;51.654;5.476;2023-04-05T10:54:26;102286.06;;;14.36;43.38
72921;BME280;61064;51.654;5.476;2023-04-05T10:56:52;102237.59;;;14.16;43.22
72921;BME280;61064;51.654;5.476;2023-04-05T10:59:19;102207.94;;;14.01;43.24
72921;BME280;61064;51.654;5.476;2023-04-05T11:01:47;102243.09;;;14.27;43.23
72921;BME280;61064;51.654;5.476;2023-04-05T11:04:16;102251.47;;;14.50;42.77
72921;BME280;61064;51.654;5.476;2023-04-05T11:06:42;102199.22;;;14.14;42.31
72921;BME280;61064;51.654;5.476;2023-04-05T11:09:15;102261.38;;;14.57;42.49
72921;BME280;61064;51.654;5.476;2023-04-05T11:11:43;102217.19;;;14.25;42.16
72921;BME280;61064;51.654;5.476;2023-04-05T11:14:53;102264.00;;;14.52;42.28
72921;BME280;61064;51.654;5.476;2023-04-05T11:17:37;102253.34;;;14.57;42.73
72921;BME280;61064;51.654;5.476;2023-04-05T11:20:04;102216.75;;;14.57;42.27
72921;BME280;61064;51.654;5.476;2023-04-05T11:22:30;102259.13;;;14.92;41.62
72921;BME280;61064;51.654;5.476;2023-04-05T11:25:00;102238.31;;;14.71;40.88
72921;BME280;61064;51.654;5.476;2023-04-05T11:27:36;102186.22;;;14.43;41.14
72921;BME280;61064;51.654;5.476;2023-04-05T11:30:04;102251.03;;;14.89;41.18
72921;BME280;61064;51.654;5.476;2023-04-05T11:32:43;102208.66;;;14.53;40.88
72921;BME280;61064;51.654;5.476;2023-04-05T11:35:15;102251.03;;;14.86;41.09
72921;BME280;61064;51.654;5.476;2023-04-05T11:37:54;102246.59;;;14.89;40.98
72921;BME280;61064;51.654;5.476;2023-04-05T11:40:24;102225.94;;;14.79;41.10
72921;BME280;61064;51.654;5.476;2023-04-05T11:43:01;102237.66;;;14.90;40.23
72921;BME280;61064;51.654;5.476;2023-04-05T11:45:32;102227.75;;;14.82;40.12
72921;BME280;61064;51.654;5.476;2023-04-05T11:48:06;102200.78;;;14.65;39.76
72921;BME280;61064;51.654;5.476;2023-04-05T11:50:32;102194.53;;;14.65;39.87
72921;BME280;61064;51.654;5.476;2023-04-05T11:53:14;102165.75;;;14.47;39.61
72921;BME280;61064;51.654;5.476;2023-04-05T11:55:45;102214.19;;;14.68;39.37
72921;BME280;61064;51.654;5.476;2023-04-05T11:58:16;102216.88;;;14.71;39.49
72921;BME280;61064;51.654;5.476;2023-04-05T12:00:42;102215.22;;;14.79;39.79
72921;BME280;61064;51.654;5.476;2023-04-05T12:03:15;102219.84;;;14.95;39.55
72921;BME280;61064;51.654;5.476;2023-04-05T12:06:00;102217.44;;;15.23;39.21
72921;BME280;61064;51.654;5.476;2023-04-05T12:08:43;102198.69;;;15.24;38.81
72921;BME280;61064;51.654;5.476;2023-04-05T12:11:22;102218.38;;;15.25;38.24
72921;BME280;61064;51.654;5.476;2023-04-05T12:13:49;102180.56;;;14.96;38.77
72921;BME280;61064;51.654;5.476;2023-04-05T12:16:17;102174.25;;;14.91;38.68
72921;BME280;61064;51.654;5.476;2023-04-05T12:18:43;102180.56;;;14.99;38.68
72921;BME280;61064;51.654;5.476;2023-04-05T12:21:08;102173.44;;;15.01;38.83
72921;BME280;61064;51.654;5.476;2023-04-05T12:23:34;102168.16;;;15.09;38.44
72921;BME280;61064;51.654;5.476;2023-04-05T12:26:02;102188.03;;;15.32;38.31
72921;BME280;61064;51.654;5.476;2023-04-05T12:28:58;102169.34;;;15.43;38.48
72921;BME280;61064;51.654;5.476;2023-04-05T12:31:40;102174.03;;;15.68;37.65
72921;BME280;61064;51.654;5.476;2023-04-05T12:34:06;102194.72;;;15.89;37.19
72921;BME280;61064;51.654;5.476;2023-04-05T12:36:32;102177.75;;;15.94;36.89
72921;BME280;61064;51.654;5.476;2023-04-05T12:38:58;102153.50;;;15.77;36.86
72921;BME280;61064;51.654;5.476;2023-04-05T12:41:30;102171.47;;;15.86;36.79
72921;BME280;61064;51.654;5.476;2023-04-05T12:43:56;102179.53;;;15.89;36.84
72921;BME280;61064;51.654;5.476;2023-04-05T12:46:45;102170.59;;;15.92;37.22
72921;BME280;61064;51.654;5.476;2023-04-05T12:49:15;102168.00;;;16.07;37.41
72921;BME280;61064;51.654;5.476;2023-04-05T12:51:45;102116.88;;;15.83;36.83
72921;BME280;61064;51.654;5.476;2023-04-05T12:54:18;102118.63;;;15.77;36.22
72921;BME280;61064;51.654;5.476;2023-04-05T12:56:44;102153.56;;;15.87;36.18
72921;BME280;61064;51.654;5.476;2023-04-05T12:59:09;102144.50;;;15.65;36.21
72921;BME280;61064;51.654;5.476;2023-04-05T13:01:35;102157.03;;;15.69;36.58
72921;BME280;61064;51.654;5.476;2023-04-05T13:04:00;102102.31;;;15.43;36.81
72921;BME280;61064;51.654;5.476;2023-04-05T13:06:29;102131.97;;;15.64;36.47
72921;BME280;61064;51.654;5.476;2023-04-05T13:08:55;102115.88;;;15.64;36.77
72921;BME280;61064;51.654;5.476;2023-04-05T13:11:21;102097.09;;;15.64;36.47
72921;BME280;61064;51.654;5.476;2023-04-05T13:13:46;102119.53;;;15.78;36.17
72921;BME280;61064;51.654;5.476;2023-04-05T13:16:12;102128.53;;;15.86;35.60
72921;BME280;61064;51.654;5.476;2023-04-05T13:18:37;102100.69;;;15.64;35.84
72921;BME280;61064;51.654;5.476;2023-04-05T13:21:03;102100.69;;;15.64;36.18
72921;BME280;61064;51.654;5.476;2023-04-05T13:23:36;102117.75;;;15.80;36.43
72921;BME280;61064;51.654;5.476;2023-04-05T13:26:03;102092.75;;;15.87;36.10